createdAt,value
2023-02-25T00:01:07.408Z,87.29
2023-02-25T00:03:10.863Z,87.93
2023-02-25T00:05:14.239Z,88.57
2023-02-25T00:07:17.304Z,86.64
2023-02-25T00:09:20.443Z,88.11
2023-02-25T00:11:24.987Z,87.84
2023-02-25T00:13:28.580Z,87.80
2023-02-25T00:15:33.105Z,87.53
2023-02-25T00:17:38.034Z,88.55
2023-02-25T00:19:41.338Z,86.83
2023-02-25T00:21:44.649Z,88.32
2023-02-25T00:23:49.460Z,87.44
2023-02-25T00:26:00.121Z,87.46
2023-02-25T00:28:06.302Z,87.66
2023-02-25T00:30:11.668Z,87.16
2023-02-25T00:32:16.378Z,86.43
2023-02-25T00:34:20.379Z,86.32
2023-02-25T00:36:25.870Z,86.69
2023-02-25T00:38:29.535Z,86.83
2023-02-25T00:40:32.662Z,86.68
2023-02-25T00:42:35.792Z,87.50
2023-02-25T00:44:39.545Z,85.45
2023-02-25T00:46:42.701Z,85.78
2023-02-25T00:48:47.361Z,86.40
2023-02-25T00:50:50.431Z,85.10
2023-02-25T00:52:53.627Z,85.57
2023-02-25T00:54:57.321Z,85.91
2023-02-25T00:57:00.506Z,86.77
2023-02-25T00:59:03.947Z,86.38
2023-02-25T01:01:09.253Z,86.60
2023-02-25T01:03:12.433Z,87.63
2023-02-25T01:05:17.584Z,87.63
2023-02-25T01:07:21.928Z,87.92
2023-02-25T01:09:25.125Z,86.63
2023-02-25T01:11:31.108Z,86.37
2023-02-25T01:13:34.303Z,87.48
2023-02-25T01:15:37.510Z,87.61
2023-02-25T01:17:40.991Z,87.71
2023-02-25T01:19:44.547Z,88.61
2023-02-25T01:21:54.494Z,87.34
2023-02-25T01:23:59.464Z,87.69
2023-02-25T01:26:04.982Z,86.57
2023-02-25T01:28:08.020Z,86.93
2023-02-25T01:30:12.919Z,86.11
2023-02-25T01:32:16.502Z,87.07
2023-02-25T01:34:20.127Z,87.51
2023-02-25T01:36:25.269Z,86.35
2023-02-25T01:38:30.318Z,86.78
2023-02-25T01:40:33.573Z,86.77
2023-02-25T01:42:37.639Z,87.63
2023-02-25T01:45:17.749Z,87.49
2023-02-25T01:47:21.297Z,86.62
2023-02-25T01:49:29.108Z,88.13
2023-02-25T01:51:32.799Z,87.71
2023-02-25T01:53:40.273Z,87.78
2023-02-25T01:55:43.702Z,86.79
2023-02-25T01:57:47.061Z,87.60
2023-02-25T01:59:50.535Z,87.90
2023-02-25T02:01:54.132Z,87.42
2023-02-25T02:03:57.293Z,87.01
2023-02-25T02:06:04.859Z,87.26
2023-02-25T02:08:08.952Z,86.45
2023-02-25T02:10:13.758Z,86.16
2023-02-25T02:12:16.930Z,85.07
2023-02-25T02:14:24.923Z,83.83
2023-02-25T02:16:42.257Z,83.87
2023-02-25T02:18:49.278Z,84.14
2023-02-25T02:20:59.325Z,83.97
2023-02-25T02:23:24.151Z,83.69
2023-02-25T02:25:55.090Z,83.68
2023-02-25T02:28:33.731Z,83.09
2023-02-25T02:30:42.324Z,84.65
2023-02-25T02:32:51.337Z,84.54
2023-02-25T02:35:00.319Z,84.22
2023-02-25T02:37:15.626Z,83.67
2023-02-25T02:39:26.316Z,83.89
2023-02-25T02:41:35.005Z,83.67
2023-02-25T02:43:42.444Z,83.73
2023-02-25T02:45:48.907Z,82.79
2023-02-25T02:47:55.906Z,83.12
2023-02-25T02:50:02.041Z,83.21
2023-02-25T02:52:08.727Z,83.65
2023-02-25T02:54:15.677Z,83.19
2023-02-25T02:56:20.128Z,83.39
2023-02-25T02:58:27.363Z,82.88
2023-02-25T03:00:35.182Z,83.09
2023-02-25T03:02:39.808Z,83.26
2023-02-25T03:04:46.498Z,83.42
2023-02-25T03:06:52.823Z,83.03
2023-02-25T03:08:59.644Z,82.87
2023-02-25T03:11:02.855Z,81.70
2023-02-25T03:13:06.020Z,82.79
2023-02-25T03:15:10.071Z,83.27
2023-02-25T03:17:16.088Z,82.69
2023-02-25T03:19:21.625Z,83.49
2023-02-25T03:21:29.322Z,82.79
2023-02-25T03:23:33.709Z,82.13
2023-02-25T03:25:39.521Z,82.30
2023-02-25T03:27:44.370Z,82.47
2023-02-25T03:29:50.582Z,83.06
2023-02-25T03:31:58.548Z,82.34
2023-02-25T03:34:06.037Z,82.78
2023-02-25T03:36:13.194Z,82.19
2023-02-25T03:38:24.168Z,82.57
2023-02-25T03:40:28.138Z,83.03
2023-02-25T03:42:34.304Z,82.65
2023-02-25T03:44:43.797Z,82.79
2023-02-25T03:46:48.355Z,82.00
2023-02-25T03:48:52.400Z,82.20
2023-02-25T03:51:00.316Z,82.89
2023-02-25T03:53:04.774Z,82.08
2023-02-25T03:55:25.681Z,82.18
2023-02-25T03:57:37.074Z,82.16
2023-02-25T03:59:40.196Z,82.72
2023-02-25T04:01:44.200Z,83.52
2023-02-25T04:03:47.437Z,83.01
2023-02-25T04:05:51.389Z,83.44
2023-02-25T04:07:54.842Z,83.46
2023-02-25T04:09:58.230Z,82.84
2023-02-25T04:12:02.878Z,83.09
2023-02-25T04:14:06.606Z,83.37
2023-02-25T04:16:09.728Z,82.62
2023-02-25T04:18:13.251Z,83.32
2023-02-25T04:20:17.306Z,82.52
2023-02-25T04:22:20.480Z,83.30
2023-02-25T04:24:23.544Z,83.03
2023-02-25T04:26:26.740Z,83.62
2023-02-25T04:28:31.141Z,83.12
2023-02-25T04:30:34.589Z,82.80
2023-02-25T04:32:37.921Z,83.63
2023-02-25T04:34:41.013Z,82.94
2023-02-25T04:36:44.545Z,83.47
2023-02-25T04:38:47.623Z,83.66
2023-02-25T04:40:52.310Z,83.86
2023-02-25T04:42:55.356Z,83.53
2023-02-25T04:44:59.788Z,82.83
2023-02-25T04:47:03.037Z,83.37
2023-02-25T04:49:07.049Z,83.01
2023-02-25T04:51:10.812Z,83.52
2023-02-25T04:53:14.057Z,84.07
2023-02-25T04:55:18.028Z,82.98
2023-02-25T04:57:21.126Z,83.64
2023-02-25T04:59:26.668Z,83.59
2023-02-25T05:01:31.667Z,82.69
2023-02-25T05:03:35.131Z,83.30
2023-02-25T05:05:40.324Z,82.82
2023-02-25T05:07:43.450Z,83.25
2023-02-25T05:09:46.485Z,83.05
2023-02-25T05:11:49.498Z,83.29
2023-02-25T05:13:53.043Z,82.76
2023-02-25T05:16:05.421Z,82.63
2023-02-25T05:18:09.884Z,82.37
2023-02-25T05:20:13.635Z,83.54
2023-02-25T05:22:17.176Z,83.28
2023-02-25T05:24:23.521Z,82.86
2023-02-25T05:26:26.896Z,82.80
2023-02-25T05:28:30.091Z,82.15
2023-02-25T05:30:33.162Z,81.97
2023-02-25T05:32:36.439Z,81.66
2023-02-25T05:34:41.553Z,81.38
2023-02-25T05:36:46.858Z,80.60
2023-02-25T05:38:50.367Z,81.16
2023-02-25T05:40:53.356Z,80.81
2023-02-25T05:42:56.448Z,81.25
2023-02-25T05:44:59.490Z,80.95
2023-02-25T05:47:02.584Z,81.06
2023-02-25T05:49:05.702Z,79.84
2023-02-25T05:51:12.345Z,79.98
2023-02-25T05:53:15.958Z,79.20
2023-02-25T05:55:19.136Z,80.60
2023-02-25T05:57:23.900Z,80.25
2023-02-25T05:59:27.241Z,79.96
2023-02-25T06:01:31.581Z,80.04
2023-02-25T06:03:34.709Z,80.00
2023-02-25T06:05:41.406Z,80.13
2023-02-25T06:07:45.853Z,80.35
2023-02-25T06:09:48.832Z,80.36
2023-02-25T06:11:52.337Z,80.12
2023-02-25T06:13:56.873Z,80.25
2023-02-25T06:16:00.066Z,80.41
2023-02-25T06:18:03.149Z,79.47
2023-02-25T06:20:07.790Z,79.56
2023-02-25T06:22:10.852Z,79.55
2023-02-25T06:24:16.322Z,79.02
2023-02-25T06:26:20.077Z,79.57
2023-02-25T06:28:23.989Z,80.02
2023-02-25T06:30:27.862Z,79.61
2023-02-25T06:32:31.096Z,78.86
2023-02-25T06:34:34.628Z,79.39
2023-02-25T06:36:37.742Z,79.41
2023-02-25T06:38:41.009Z,78.72
2023-02-25T06:40:45.471Z,79.08
2023-02-25T06:42:48.543Z,78.59
2023-02-25T06:44:51.686Z,79.05
2023-02-25T06:46:55.864Z,78.07
2023-02-25T06:48:58.981Z,77.90
2023-02-25T06:51:02.945Z,78.29
2023-02-25T06:53:06.142Z,78.47
2023-02-25T06:55:10.538Z,78.07
2023-02-25T06:57:14.911Z,78.01
2023-02-25T06:59:18.347Z,77.74
2023-02-25T07:01:21.443Z,77.79
2023-02-25T07:03:24.547Z,77.00
2023-02-25T07:05:27.919Z,77.11
2023-02-25T07:07:33.421Z,77.89
2023-02-25T07:09:36.470Z,78.40
2023-02-25T07:11:39.520Z,76.98
2023-02-25T07:13:44.477Z,77.22
2023-02-25T07:15:47.523Z,76.51
2023-02-25T07:17:50.644Z,76.62
2023-02-25T07:19:56.064Z,77.21
2023-02-25T07:21:59.232Z,76.65
2023-02-25T07:24:02.342Z,77.31
2023-02-25T07:26:06.526Z,77.13
2023-02-25T07:28:09.519Z,76.60
2023-02-25T07:30:14.941Z,75.63
2023-02-25T07:32:18.162Z,75.85
2023-02-25T07:34:21.375Z,75.79
2023-02-25T07:36:27.232Z,76.03
2023-02-25T07:38:30.279Z,75.83
2023-02-25T07:40:33.263Z,76.09
2023-02-25T07:42:36.330Z,75.38
2023-02-25T07:44:42.403Z,76.59
2023-02-25T07:46:46.800Z,75.61
2023-02-25T07:48:50.178Z,75.72
2023-02-25T07:50:53.290Z,74.85
2023-02-25T07:52:56.491Z,74.48
2023-02-25T07:54:59.757Z,75.08
2023-02-25T07:57:02.777Z,74.32
2023-02-25T07:59:06.182Z,75.71
2023-02-25T08:01:10.304Z,74.60
2023-02-25T08:03:14.830Z,73.87
2023-02-25T08:05:21.905Z,74.62
2023-02-25T08:07:26.588Z,75.50
2023-02-25T08:09:29.826Z,75.42
2023-02-25T08:11:33.223Z,74.30
2023-02-25T08:13:36.828Z,74.54
2023-02-25T08:15:41.949Z,74.94
2023-02-25T08:17:45.345Z,74.16
2023-02-25T08:19:49.997Z,74.73
2023-02-25T08:21:54.870Z,73.80
2023-02-25T08:23:57.932Z,74.39
2023-02-25T08:26:01.564Z,75.61
2023-02-25T08:28:04.730Z,75.40
2023-02-25T08:30:09.009Z,74.20
2023-02-25T08:32:12.229Z,73.22
2023-02-25T08:34:15.345Z,73.77
2023-02-25T08:36:21.676Z,74.24
2023-02-25T08:38:24.746Z,73.40
2023-02-25T08:40:27.868Z,73.55
2023-02-25T08:42:31.372Z,73.88
2023-02-25T08:44:34.525Z,73.45
2023-02-25T08:46:38.964Z,73.44
2023-02-25T08:48:42.147Z,73.85
2023-02-25T08:50:45.503Z,73.59
2023-02-25T08:52:50.055Z,73.75
2023-02-25T08:54:53.173Z,72.33
2023-02-25T08:56:57.268Z,73.06
2023-02-25T08:59:00.549Z,72.83
2023-02-25T09:01:08.848Z,72.87
2023-02-25T09:03:12.240Z,72.36
2023-02-25T09:05:15.569Z,72.46
2023-02-25T09:07:18.714Z,70.32
2023-02-25T09:09:23.347Z,71.37
2023-02-25T09:11:27.058Z,70.48
2023-02-25T09:13:30.628Z,70.61
2023-02-25T09:15:33.753Z,69.76
2023-02-25T09:17:36.805Z,69.44
2023-02-25T09:19:40.157Z,70.34
2023-02-25T09:21:43.271Z,70.98
2023-02-25T09:23:46.747Z,68.99
2023-02-25T09:25:51.278Z,70.44
2023-02-25T09:27:54.330Z,70.26
2023-02-25T09:29:57.432Z,70.48
2023-02-25T09:32:00.583Z,69.71
2023-02-25T09:34:06.391Z,70.12
2023-02-25T09:36:11.641Z,70.81
2023-02-25T09:38:14.761Z,70.00
2023-02-25T09:40:22.838Z,68.92
2023-02-25T09:42:30.829Z,68.91
2023-02-25T09:44:35.897Z,67.95
2023-02-25T09:46:43.978Z,67.89
2023-02-25T09:48:53.626Z,68.47
2023-02-25T09:51:00.341Z,69.08
2023-02-25T09:53:07.596Z,68.67
2023-02-25T09:55:19.599Z,68.46
2023-02-25T09:57:23.590Z,69.11
2023-02-25T09:59:29.826Z,68.60
2023-02-25T10:01:36.807Z,68.51
2023-02-25T10:03:58.866Z,69.34
2023-02-25T10:06:05.103Z,69.64
2023-02-25T10:08:19.096Z,68.68
2023-02-25T10:10:26.753Z,68.69
2023-02-25T10:12:35.917Z,68.25
2023-02-25T10:14:56.877Z,68.17
2023-02-25T10:17:05.880Z,68.64
2023-02-25T10:19:16.983Z,68.06
2023-02-25T10:21:26.718Z,68.03
2023-02-25T10:23:40.527Z,68.22
2023-02-25T10:25:50.090Z,67.96
2023-02-25T10:27:55.459Z,68.42
2023-02-25T10:30:04.398Z,67.70
2023-02-25T10:32:18.306Z,66.88
2023-02-25T10:34:26.059Z,68.46
2023-02-25T10:36:32.454Z,67.52
2023-02-25T10:38:36.580Z,66.04
2023-02-25T10:40:41.306Z,66.22
2023-02-25T10:42:47.421Z,66.75
2023-02-25T10:44:51.302Z,67.15
2023-02-25T10:46:59.325Z,66.86
2023-02-25T10:49:06.245Z,66.60
2023-02-25T10:51:12.177Z,65.42
2023-02-25T10:53:16.668Z,64.71
2023-02-25T10:55:32.670Z,64.66
2023-02-25T10:57:42.833Z,64.61
2023-02-25T10:59:47.604Z,65.37
2023-02-25T11:01:51.058Z,63.63
2023-02-25T11:03:58.939Z,64.55
2023-02-25T11:06:15.661Z,64.07
2023-02-25T11:08:27.879Z,65.82
2023-02-25T11:10:31.088Z,66.55
2023-02-25T11:12:42.317Z,66.60
2023-02-25T11:14:47.980Z,65.66
2023-02-25T11:16:51.234Z,67.11
2023-02-25T11:18:57.722Z,68.17
2023-02-25T11:21:02.370Z,67.92
2023-02-25T11:23:05.480Z,67.29
2023-02-25T11:25:17.032Z,66.77
2023-02-25T11:27:29.660Z,67.29
2023-02-25T11:29:36.453Z,67.13
2023-02-25T11:31:41.662Z,67.32
2023-02-25T11:33:48.405Z,67.19
2023-02-25T11:35:59.776Z,67.23
2023-02-25T11:38:14.989Z,66.87
2023-02-25T11:40:24.363Z,66.93
2023-02-25T11:42:30.166Z,67.79
2023-02-25T11:44:43.309Z,66.09
2023-02-25T11:46:48.056Z,66.57
2023-02-25T11:48:52.904Z,67.41
2023-02-25T11:51:13.302Z,68.64
2023-02-25T11:53:26.017Z,69.38
2023-02-25T11:55:42.249Z,68.01
2023-02-25T11:57:53.097Z,68.12
2023-02-25T12:00:05.335Z,67.75
2023-02-25T12:02:25.407Z,66.95
2023-02-25T12:05:01.898Z,68.23
2023-02-25T12:07:25.103Z,68.37
2023-02-25T12:10:05.331Z,70.31
2023-02-25T12:12:29.907Z,69.69
2023-02-25T12:15:11.091Z,71.14
2023-02-25T12:17:43.345Z,71.76
2023-02-25T12:20:31.107Z,72.86
2023-02-25T12:23:10.565Z,73.93
2023-02-25T12:25:20.625Z,74.47
2023-02-25T12:27:41.176Z,73.56
2023-02-25T12:29:59.485Z,73.13
2023-02-25T12:32:22.498Z,73.95
2023-02-25T12:34:53.874Z,74.83
2023-02-25T12:37:10.981Z,74.97
2023-02-25T12:39:38.289Z,75.31
2023-02-25T12:41:42.132Z,75.44
2023-02-25T12:43:50.498Z,75.56
2023-02-25T12:46:06.916Z,74.94
2023-02-25T12:48:36.367Z,75.75
2023-02-25T12:50:52.223Z,74.93
2023-02-25T12:53:13.732Z,75.93
2023-02-25T12:55:31.529Z,75.23
2023-02-25T12:57:41.069Z,74.85
2023-02-25T13:00:07.836Z,74.45
2023-02-25T13:02:22.497Z,74.50
2023-02-25T13:04:56.197Z,73.31
2023-02-25T13:07:48.816Z,74.85
2023-02-25T13:10:18.385Z,73.00
2023-02-25T13:12:35.305Z,73.84
2023-02-25T13:14:47.983Z,72.43
2023-02-25T13:17:01.154Z,71.85
2023-02-25T13:19:16.630Z,72.71
2023-02-25T13:21:31.074Z,71.51
2023-02-25T13:23:45.326Z,70.44
2023-02-25T13:25:59.977Z,69.99
2023-02-25T13:28:14.456Z,69.22
2023-02-25T13:30:41.503Z,68.89
2023-02-25T13:32:51.014Z,70.76
2023-02-25T13:35:06.731Z,70.37
2023-02-25T13:37:29.220Z,71.45
2023-02-25T13:40:06.393Z,71.93
2023-02-25T13:42:28.784Z,72.47
2023-02-25T13:44:56.081Z,72.09
2023-02-25T13:47:21.172Z,72.52
2023-02-25T13:49:49.823Z,71.69
2023-02-25T13:52:14.596Z,70.75
2023-02-25T13:54:43.228Z,71.70
2023-02-25T13:56:57.869Z,71.22
2023-02-25T13:59:18.147Z,70.07
2023-02-25T14:01:35.946Z,69.77
2023-02-25T14:04:36.216Z,70.15
2023-02-25T14:07:06.507Z,69.34
2023-02-25T14:09:20.216Z,67.72
2023-02-25T14:11:43.145Z,67.31
2023-02-25T14:13:55.970Z,66.66
2023-02-25T14:16:04.396Z,68.26
2023-02-25T14:18:26.154Z,67.01
2023-02-25T14:20:40.378Z,69.09
2023-02-25T14:22:45.443Z,67.37
2023-02-25T14:24:54.068Z,68.69
2023-02-25T14:27:02.971Z,69.49
2023-02-25T14:29:16.274Z,67.99
2023-02-25T14:31:23.166Z,67.35
2023-02-25T14:33:48.752Z,67.53
2023-02-25T14:36:13.475Z,68.53
2023-02-25T14:38:23.000Z,68.20
2023-02-25T14:40:30.944Z,67.21
2023-02-25T14:42:42.570Z,67.68
2023-02-25T14:44:50.044Z,69.49
2023-02-25T14:46:57.728Z,68.13
2023-02-25T14:49:06.419Z,66.87
2023-02-25T14:51:40.362Z,67.89
2023-02-25T14:54:00.877Z,68.90
2023-02-25T14:56:32.518Z,65.78
2023-02-25T14:58:52.039Z,66.42
2023-02-25T15:01:10.460Z,67.58
2023-02-25T15:03:31.957Z,67.55
2023-02-25T15:06:07.895Z,67.37
2023-02-25T15:08:26.815Z,66.69
2023-02-25T15:10:41.752Z,68.43
2023-02-25T15:12:58.561Z,68.18
2023-02-25T15:15:21.104Z,68.63
2023-02-25T15:17:46.660Z,68.91
2023-02-25T15:20:02.620Z,68.91
2023-02-25T15:22:22.719Z,68.12
2023-02-25T15:24:47.002Z,68.78
2023-02-25T15:26:50.435Z,67.95
2023-02-25T15:28:54.958Z,68.12
2023-02-25T15:31:11.469Z,67.91
2023-02-25T15:33:36.571Z,67.87
2023-02-25T15:36:00.919Z,68.50
2023-02-25T15:38:09.343Z,70.31
2023-02-25T15:40:52.069Z,71.81
2023-02-25T15:42:56.332Z,75.37
2023-02-25T15:45:40.385Z,78.20
2023-02-25T15:47:43.920Z,79.92
2023-02-25T15:49:49.440Z,81.16
2023-02-25T15:51:54.662Z,81.97
2023-02-25T15:53:59.704Z,83.40
2023-02-25T15:56:25.374Z,83.38
2023-02-25T15:58:46.107Z,84.17
2023-02-25T16:00:54.510Z,84.56
2023-02-25T16:03:01.741Z,84.53
2023-02-25T16:05:18.023Z,84.16
2023-02-25T16:07:22.910Z,84.57
2023-02-25T16:09:28.686Z,85.50
2023-02-25T16:11:36.319Z,86.15
2023-02-25T16:13:42.970Z,85.26
2023-02-25T16:15:49.059Z,84.80
2023-02-25T16:17:54.724Z,84.94
2023-02-25T16:20:00.763Z,85.59
2023-02-25T16:22:09.248Z,85.89
2023-02-25T16:24:14.048Z,86.53
2023-02-25T16:26:28.423Z,86.84
2023-02-25T16:28:39.689Z,85.85
2023-02-25T16:30:47.661Z,85.42
2023-02-25T16:32:56.823Z,85.15
2023-02-25T16:35:04.170Z,85.40
2023-02-25T16:37:12.108Z,85.74
2023-02-25T16:39:18.942Z,85.80
2023-02-25T16:41:30.278Z,85.58
2023-02-25T16:43:40.582Z,86.09
2023-02-25T16:45:45.389Z,85.52
2023-02-25T16:47:59.841Z,85.84
2023-02-25T16:50:07.797Z,86.21
2023-02-25T16:52:18.332Z,86.31
2023-02-25T16:54:23.821Z,86.33
2023-02-25T16:56:29.856Z,86.45
2023-02-25T16:58:32.992Z,86.15
2023-02-25T17:00:37.269Z,86.26
2023-02-25T17:02:45.180Z,86.25
2023-02-25T17:04:50.284Z,86.39
2023-02-25T17:07:08.003Z,86.55
2023-02-25T17:09:23.529Z,86.66
2023-02-25T17:11:28.594Z,86.81
2023-02-25T17:13:34.506Z,86.84
2023-02-25T17:15:37.920Z,86.41
2023-02-25T17:17:42.686Z,87.18
2023-02-25T17:19:45.793Z,91.87
2023-02-25T17:21:52.958Z,94.59
2023-02-25T17:23:56.911Z,98.52
2023-02-25T17:26:00.456Z,98.96
2023-02-25T17:28:06.358Z,100.00
2023-02-25T17:30:39.279Z,100.00
2023-02-25T17:32:45.138Z,100.00
2023-02-25T17:34:49.491Z,100.00
2023-02-25T17:36:53.053Z,100.00
2023-02-25T17:38:58.493Z,100.00
2023-02-25T17:41:01.673Z,100.00
2023-02-25T17:43:23.763Z,100.00
2023-02-25T17:45:44.340Z,100.00
2023-02-25T17:47:47.535Z,100.00
2023-02-25T17:49:51.335Z,100.00
2023-02-25T17:51:56.403Z,100.00
2023-02-25T17:54:01.223Z,100.00
2023-02-25T17:56:26.529Z,100.00
2023-02-25T17:58:35.418Z,100.00
2023-02-25T18:00:39.114Z,100.00
2023-02-25T18:02:44.229Z,100.00
2023-02-25T18:04:47.592Z,99.97
2023-02-25T18:06:50.757Z,100.00
2023-02-25T18:08:55.308Z,98.74
2023-02-25T18:11:01.693Z,99.43
2023-02-25T18:13:05.645Z,98.16
2023-02-25T18:15:20.912Z,97.27
2023-02-25T18:17:26.968Z,97.32
2023-02-25T18:19:38.074Z,96.70
2023-02-25T18:21:42.603Z,96.89
2023-02-25T18:23:45.942Z,96.76
2023-02-25T18:25:51.824Z,96.00
2023-02-25T18:27:55.753Z,95.76
2023-02-25T18:30:01.553Z,95.66
2023-02-25T18:32:06.316Z,94.87
2023-02-25T18:34:09.442Z,94.81
2023-02-25T18:36:18.034Z,94.82
2023-02-25T18:38:23.197Z,94.56
2023-02-25T18:40:29.565Z,94.49
2023-02-25T18:42:33.275Z,94.90
2023-02-25T18:44:36.431Z,94.54
2023-02-25T18:46:39.614Z,93.03
2023-02-25T18:48:44.166Z,93.46
2023-02-25T18:50:47.409Z,93.21
2023-02-25T18:52:51.051Z,93.50
2023-02-25T18:54:54.351Z,93.96
2023-02-25T18:56:57.570Z,92.09
2023-02-25T18:59:00.665Z,92.14
2023-02-25T19:01:03.980Z,92.59
2023-02-25T19:03:09.965Z,92.69
2023-02-25T19:05:16.031Z,93.61
2023-02-25T19:07:19.108Z,92.56
2023-02-25T19:09:23.822Z,92.83
2023-02-25T19:11:32.099Z,92.28
2023-02-25T19:13:36.624Z,92.47
2023-02-25T19:15:39.788Z,92.62
2023-02-25T19:17:43.017Z,91.02
2023-02-25T19:19:46.437Z,90.68
2023-02-25T19:21:50.905Z,91.04
2023-02-25T19:23:55.437Z,90.91
2023-02-25T19:26:00.797Z,90.98
2023-02-25T19:28:04.732Z,91.07
2023-02-25T19:30:12.436Z,90.87
2023-02-25T19:32:16.569Z,91.11
2023-02-25T19:34:20.006Z,90.87
2023-02-25T19:36:23.352Z,90.70
2023-02-25T19:38:27.940Z,90.77
2023-02-25T19:40:31.261Z,90.12
2023-02-25T19:42:34.632Z,90.35
2023-02-25T19:44:38.475Z,89.01
2023-02-25T19:46:41.567Z,89.20
2023-02-25T19:48:44.659Z,89.41
2023-02-25T19:50:47.702Z,89.31
2023-02-25T19:52:51.257Z,89.74
2023-02-25T19:54:56.123Z,88.80
2023-02-25T19:56:59.430Z,89.86
2023-02-25T19:59:02.583Z,89.02
2023-02-25T20:01:08.192Z,88.63
2023-02-25T20:03:11.371Z,88.97
2023-02-25T20:05:15.601Z,89.11
2023-02-25T20:07:18.749Z,88.71
2023-02-25T20:09:21.858Z,89.38
2023-02-25T20:11:26.357Z,88.85
2023-02-25T20:13:29.480Z,88.85
2023-02-25T20:15:32.637Z,89.68
2023-02-25T20:17:37.279Z,88.68
2023-02-25T20:19:40.401Z,88.65
2023-02-25T20:21:43.600Z,86.32
2023-02-25T20:23:46.726Z,86.13
2023-02-25T20:25:50.023Z,85.87
2023-02-25T20:27:54.446Z,86.25
2023-02-25T20:29:57.641Z,86.77
2023-02-25T20:32:00.912Z,85.95
2023-02-25T20:34:05.786Z,85.87
2023-02-25T20:36:19.240Z,85.36
2023-02-25T20:38:26.949Z,84.68
2023-02-25T20:40:30.279Z,84.48
2023-02-25T20:42:33.530Z,84.20
2023-02-25T20:44:38.300Z,83.98
2023-02-25T20:46:42.693Z,84.42
2023-02-25T20:48:46.120Z,85.01
2023-02-25T20:50:49.597Z,85.76
2023-02-25T20:52:52.955Z,86.46
2023-02-25T20:54:56.222Z,86.39
2023-02-25T20:56:59.305Z,86.13
2023-02-25T20:59:02.877Z,86.18
2023-02-25T21:01:07.888Z,86.11
2023-02-25T21:03:11.052Z,86.57
2023-02-25T21:05:14.078Z,86.43
2023-02-25T21:07:17.593Z,86.26
2023-02-25T21:09:20.770Z,86.64
2023-02-25T21:11:25.076Z,87.40
2023-02-25T21:13:28.375Z,86.90
2023-02-25T21:15:31.608Z,86.50
2023-02-25T21:17:36.086Z,86.75
2023-02-25T21:19:39.372Z,87.01
2023-02-25T21:21:42.339Z,86.73
2023-02-25T21:23:45.661Z,86.78
2023-02-25T21:25:48.796Z,86.95
2023-02-25T21:27:51.965Z,87.17
2023-02-25T21:29:55.140Z,86.92
2023-02-25T21:31:59.074Z,87.46
2023-02-25T21:34:04.163Z,88.48
2023-02-25T21:36:08.428Z,88.93
2023-02-25T21:38:11.513Z,89.83
2023-02-25T21:40:14.711Z,88.71
2023-02-25T21:42:17.846Z,87.14
2023-02-25T21:44:21.094Z,86.34
2023-02-25T21:46:24.654Z,87.17
2023-02-25T21:48:29.086Z,86.35
2023-02-25T21:50:34.013Z,86.49
2023-02-25T21:52:37.151Z,87.38
2023-02-25T21:54:40.222Z,86.94
2023-02-25T21:56:43.309Z,87.15
2023-02-25T21:58:46.775Z,87.38
2023-02-25T22:00:50.063Z,87.68
2023-02-25T22:02:53.632Z,87.69
2023-02-25T22:04:56.757Z,88.03
2023-02-25T22:07:01.229Z,84.71
2023-02-25T22:09:06.272Z,85.57
2023-02-25T22:11:12.756Z,86.39
2023-02-25T22:13:15.900Z,86.30
2023-02-25T22:15:19.192Z,86.72
2023-02-25T22:17:22.350Z,86.85
2023-02-25T22:19:25.570Z,85.78
2023-02-25T22:21:30.125Z,86.15
2023-02-25T22:23:34.664Z,86.14
2023-02-25T22:25:37.755Z,85.89
2023-02-25T22:27:40.881Z,85.96
2023-02-25T22:29:44.071Z,86.54
2023-02-25T22:31:47.336Z,85.57
2023-02-25T22:33:50.415Z,85.73
2023-02-25T22:35:57.915Z,85.16
2023-02-25T22:38:00.989Z,85.52
2023-02-25T22:40:06.215Z,86.85
2023-02-25T22:42:09.363Z,85.70
2023-02-25T22:44:14.751Z,86.31
2023-02-25T22:46:20.403Z,86.11
2023-02-25T22:48:23.569Z,86.39
2023-02-25T22:50:29.093Z,86.25
2023-02-25T22:52:32.253Z,86.87
2023-02-25T22:54:36.236Z,86.34
2023-02-25T22:56:41.139Z,86.83
2023-02-25T22:58:44.717Z,87.77
2023-02-25T23:00:48.279Z,87.13
2023-02-25T23:02:52.094Z,87.18
2023-02-25T23:04:55.572Z,86.58
2023-02-25T23:06:58.760Z,86.75
2023-02-25T23:09:01.898Z,87.59
2023-02-25T23:11:10.114Z,87.83
2023-02-25T23:13:17.340Z,87.48
2023-02-25T23:15:20.471Z,87.48
2023-02-25T23:17:23.816Z,87.41
2023-02-25T23:19:28.213Z,87.85
2023-02-25T23:21:32.518Z,87.87
2023-02-25T23:23:38.629Z,87.57
2023-02-25T23:25:43.238Z,87.83
2023-02-25T23:27:46.464Z,87.37
2023-02-25T23:29:50.849Z,87.20
2023-02-25T23:31:54.030Z,87.92
2023-02-25T23:33:57.919Z,87.69
2023-02-25T23:36:02.083Z,87.25
2023-02-25T23:38:05.070Z,87.15
2023-02-25T23:40:11.871Z,87.57
2023-02-25T23:42:17.417Z,87.32
2023-02-25T23:44:20.800Z,87.74
2023-02-25T23:46:27.357Z,86.56
2023-02-25T23:48:30.765Z,86.90
2023-02-25T23:50:33.998Z,86.65
2023-02-25T23:52:37.133Z,86.57
2023-02-25T23:54:40.333Z,86.42
2023-02-25T23:56:43.626Z,86.81
2023-02-25T23:58:49.942Z,86.73
